sensor_id;sensor_type;location;lat;lon;timestamp;P1;durP1;ratioP1;P2;durP2;ratioP2
15116;SDS011;7659;51.038;13.786;2022-12-08T00:01:27;11.95;;;3.22;;
15116;SDS011;7659;51.038;13.786;2022-12-08T00:03:53;10.02;;;3.33;;
15116;SDS011;7659;51.038;13.786;2022-12-08T00:06:26;11.10;;;4.00;;
15116;SDS011;7659;51.038;13.786;2022-12-08T00:09:18;8.40;;;2.95;;
15116;SDS011;7659;51.038;13.786;2022-12-08T00:14:15;10.23;;;3.13;;
15116;SDS011;7659;51.038;13.786;2022-12-08T00:16:41;7.82;;;3.08;;
15116;SDS011;7659;51.038;13.786;2022-12-08T00:19:06;8.63;;;3.83;;
15116;SDS011;7659;51.038;13.786;2022-12-08T00:21:32;12.20;;;3.72;;
15116;SDS011;7659;51.038;13.786;2022-12-08T00:23:57;10.32;;;3.70;;
15116;SDS011;7659;51.038;13.786;2022-12-08T00:26:23;8.05;;;3.22;;
15116;SDS011;7659;51.038;13.786;2022-12-08T00:28:48;9.90;;;3.88;;
15116;SDS011;7659;51.038;13.786;2022-12-08T00:31:15;10.60;;;4.03;;
15116;SDS011;7659;51.038;13.786;2022-12-08T00:33:40;10.25;;;3.50;;
15116;SDS011;7659;51.038;13.786;2022-12-08T00:36:10;8.35;;;3.70;;
15116;SDS011;7659;51.038;13.786;2022-12-08T00:38:36;8.45;;;3.80;;
15116;SDS011;7659;51.038;13.786;2022-12-08T00:41:02;11.48;;;4.10;;
15116;SDS011;7659;51.038;13.786;2022-12-08T00:43:28;12.85;;;3.75;;
15116;SDS011;7659;51.038;13.786;2022-12-08T00:45:53;9.55;;;3.20;;
15116;SDS011;7659;51.038;13.786;2022-12-08T00:48:19;10.73;;;4.20;;
15116;SDS011;7659;51.038;13.786;2022-12-08T00:50:45;10.65;;;3.65;;
15116;SDS011;7659;51.038;13.786;2022-12-08T00:53:10;10.15;;;4.28;;
15116;SDS011;7659;51.038;13.786;2022-12-08T00:55:35;12.75;;;3.67;;
15116;SDS011;7659;51.038;13.786;2022-12-08T00:58:01;12.32;;;3.65;;
15116;SDS011;7659;51.038;13.786;2022-12-08T01:00:26;9.25;;;3.70;;
15116;SDS011;7659;51.038;13.786;2022-12-08T01:02:52;13.50;;;4.38;;
15116;SDS011;7659;51.038;13.786;2022-12-08T01:05:17;10.90;;;4.32;;
15116;SDS011;7659;51.038;13.786;2022-12-08T01:07:43;10.60;;;4.25;;
15116;SDS011;7659;51.038;13.786;2022-12-08T01:10:08;10.73;;;4.18;;
15116;SDS011;7659;51.038;13.786;2022-12-08T01:12:33;9.57;;;3.72;;
15116;SDS011;7659;51.038;13.786;2022-12-08T01:14:59;8.90;;;4.03;;
15116;SDS011;7659;51.038;13.786;2022-12-08T01:17:24;10.25;;;4.13;;
15116;SDS011;7659;51.038;13.786;2022-12-08T01:19:50;11.30;;;4.15;;
15116;SDS011;7659;51.038;13.786;2022-12-08T01:22:15;10.73;;;4.40;;
15116;SDS011;7659;51.038;13.786;2022-12-08T01:24:41;8.98;;;4.10;;
15116;SDS011;7659;51.038;13.786;2022-12-08T01:27:06;13.15;;;4.32;;
15116;SDS011;7659;51.038;13.786;2022-12-08T01:29:32;11.45;;;4.18;;
15116;SDS011;7659;51.038;13.786;2022-12-08T01:31:58;12.45;;;3.90;;
15116;SDS011;7659;51.038;13.786;2022-12-08T01:34:24;9.80;;;4.00;;
15116;SDS011;7659;51.038;13.786;2022-12-08T01:36:49;10.10;;;4.03;;
15116;SDS011;7659;51.038;13.786;2022-12-08T01:39:16;7.28;;;3.65;;
15116;SDS011;7659;51.038;13.786;2022-12-08T01:41:42;9.45;;;4.43;;
15116;SDS011;7659;51.038;13.786;2022-12-08T01:46:44;11.38;;;4.63;;
15116;SDS011;7659;51.038;13.786;2022-12-08T01:52:02;6.85;;;3.78;;
15116;SDS011;7659;51.038;13.786;2022-12-08T01:54:30;10.43;;;4.25;;
15116;SDS011;7659;51.038;13.786;2022-12-08T01:56:59;8.15;;;4.32;;
15116;SDS011;7659;51.038;13.786;2022-12-08T01:59:25;8.82;;;4.75;;
15116;SDS011;7659;51.038;13.786;2022-12-08T02:01:51;9.70;;;4.38;;
15116;SDS011;7659;51.038;13.786;2022-12-08T02:04:17;9.70;;;4.25;;
15116;SDS011;7659;51.038;13.786;2022-12-08T02:06:42;8.23;;;3.97;;
15116;SDS011;7659;51.038;13.786;2022-12-08T02:09:09;11.52;;;4.82;;
15116;SDS011;7659;51.038;13.786;2022-12-08T02:11:34;9.25;;;4.50;;
15116;SDS011;7659;51.038;13.786;2022-12-08T02:14:03;10.40;;;5.30;;
15116;SDS011;7659;51.038;13.786;2022-12-08T02:36:59;12.25;;;6.32;;
15116;SDS011;7659;51.038;13.786;2022-12-08T02:39:28;10.57;;;5.72;;
15116;SDS011;7659;51.038;13.786;2022-12-08T02:41:58;13.25;;;5.68;;
15116;SDS011;7659;51.038;13.786;2022-12-08T02:45:08;11.30;;;6.20;;
15116;SDS011;7659;51.038;13.786;2022-12-08T02:47:14;12.10;;;6.00;;
15116;SDS011;7659;51.038;13.786;2022-12-08T02:49:41;11.23;;;5.97;;
15116;SDS011;7659;51.038;13.786;2022-12-08T02:54:35;14.38;;;6.10;;
15116;SDS011;7659;51.038;13.786;2022-12-08T02:59:49;12.27;;;5.93;;
15116;SDS011;7659;51.038;13.786;2022-12-08T03:02:40;12.80;;;6.32;;
15116;SDS011;7659;51.038;13.786;2022-12-08T03:07:44;9.00;;;5.47;;
15116;SDS011;7659;51.038;13.786;2022-12-08T03:10:15;14.07;;;6.13;;
15116;SDS011;7659;51.038;13.786;2022-12-08T03:12:46;11.43;;;5.82;;
15116;SDS011;7659;51.038;13.786;2022-12-08T03:15:14;10.75;;;5.43;;
15116;SDS011;7659;51.038;13.786;2022-12-08T03:17:41;15.02;;;6.43;;
15116;SDS011;7659;51.038;13.786;2022-12-08T03:20:09;9.13;;;5.78;;
15116;SDS011;7659;51.038;13.786;2022-12-08T03:22:35;10.25;;;5.80;;
15116;SDS011;7659;51.038;13.786;2022-12-08T03:25:01;10.65;;;5.85;;
15116;SDS011;7659;51.038;13.786;2022-12-08T03:27:27;11.77;;;5.97;;
15116;SDS011;7659;51.038;13.786;2022-12-08T03:29:55;12.02;;;5.40;;
15116;SDS011;7659;51.038;13.786;2022-12-08T03:34:52;9.35;;;5.82;;
15116;SDS011;7659;51.038;13.786;2022-12-08T03:37:19;11.63;;;6.35;;
15116;SDS011;7659;51.038;13.786;2022-12-08T03:39:44;9.40;;;6.22;;
15116;SDS011;7659;51.038;13.786;2022-12-08T03:42:10;10.02;;;5.53;;
15116;SDS011;7659;51.038;13.786;2022-12-08T03:44:35;9.88;;;5.60;;
15116;SDS011;7659;51.038;13.786;2022-12-08T03:47:01;11.52;;;5.93;;
15116;SDS011;7659;51.038;13.786;2022-12-08T03:49:26;8.27;;;6.20;;
15116;SDS011;7659;51.038;13.786;2022-12-08T03:51:51;10.95;;;6.20;;
15116;SDS011;7659;51.038;13.786;2022-12-08T03:54:17;9.35;;;5.80;;
15116;SDS011;7659;51.038;13.786;2022-12-08T03:56:42;13.00;;;5.70;;
15116;SDS011;7659;51.038;13.786;2022-12-08T03:59:09;13.45;;;6.57;;
15116;SDS011;7659;51.038;13.786;2022-12-08T04:01:34;8.50;;;5.88;;
15116;SDS011;7659;51.038;13.786;2022-12-08T04:04:00;10.82;;;5.88;;
15116;SDS011;7659;51.038;13.786;2022-12-08T04:06:25;16.08;;;6.47;;
15116;SDS011;7659;51.038;13.786;2022-12-08T04:08:51;12.23;;;6.43;;
15116;SDS011;7659;51.038;13.786;2022-12-08T04:11:17;11.95;;;6.28;;
15116;SDS011;7659;51.038;13.786;2022-12-08T04:13:43;9.52;;;6.07;;
15116;SDS011;7659;51.038;13.786;2022-12-08T04:16:13;11.73;;;5.82;;
15116;SDS011;7659;51.038;13.786;2022-12-08T04:18:39;11.00;;;6.07;;
15116;SDS011;7659;51.038;13.786;2022-12-08T04:21:04;12.43;;;6.00;;
15116;SDS011;7659;51.038;13.786;2022-12-08T04:23:30;9.43;;;6.30;;
15116;SDS011;7659;51.038;13.786;2022-12-08T04:25:55;7.85;;;5.35;;
15116;SDS011;7659;51.038;13.786;2022-12-08T04:28:21;8.50;;;5.38;;
15116;SDS011;7659;51.038;13.786;2022-12-08T04:30:47;8.98;;;5.20;;
15116;SDS011;7659;51.038;13.786;2022-12-08T04:33:12;8.55;;;5.50;;
15116;SDS011;7659;51.038;13.786;2022-12-08T04:35:37;6.80;;;4.80;;
15116;SDS011;7659;51.038;13.786;2022-12-08T04:38:03;8.57;;;5.68;;
15116;SDS011;7659;51.038;13.786;2022-12-08T04:40:28;9.05;;;5.50;;
15116;SDS011;7659;51.038;13.786;2022-12-08T04:42:54;9.13;;;6.03;;
15116;SDS011;7659;51.038;13.786;2022-12-08T04:45:19;8.32;;;5.82;;
15116;SDS011;7659;51.038;13.786;2022-12-08T04:47:45;11.57;;;5.25;;
15116;SDS011;7659;51.038;13.786;2022-12-08T04:50:10;10.68;;;5.15;;
15116;SDS011;7659;51.038;13.786;2022-12-08T04:52:36;11.65;;;5.65;;
15116;SDS011;7659;51.038;13.786;2022-12-08T04:55:01;9.50;;;5.90;;
15116;SDS011;7659;51.038;13.786;2022-12-08T04:57:27;7.72;;;5.18;;
15116;SDS011;7659;51.038;13.786;2022-12-08T04:59:52;8.77;;;5.63;;
15116;SDS011;7659;51.038;13.786;2022-12-08T05:02:17;9.98;;;5.20;;
15116;SDS011;7659;51.038;13.786;2022-12-08T05:04:43;9.98;;;5.35;;
15116;SDS011;7659;51.038;13.786;2022-12-08T05:07:09;7.43;;;5.43;;
15116;SDS011;7659;51.038;13.786;2022-12-08T05:09:34;6.63;;;5.45;;
15116;SDS011;7659;51.038;13.786;2022-12-08T05:12:00;8.38;;;5.10;;
15116;SDS011;7659;51.038;13.786;2022-12-08T05:14:25;7.97;;;5.15;;
15116;SDS011;7659;51.038;13.786;2022-12-08T05:16:50;8.80;;;5.78;;
15116;SDS011;7659;51.038;13.786;2022-12-08T05:19:16;8.02;;;5.43;;
15116;SDS011;7659;51.038;13.786;2022-12-08T05:21:41;6.50;;;5.57;;
15116;SDS011;7659;51.038;13.786;2022-12-08T05:24:07;8.63;;;6.10;;
15116;SDS011;7659;51.038;13.786;2022-12-08T05:26:33;9.57;;;5.80;;
15116;SDS011;7659;51.038;13.786;2022-12-08T05:28:58;7.68;;;5.45;;
15116;SDS011;7659;51.038;13.786;2022-12-08T05:31:24;9.15;;;5.00;;
15116;SDS011;7659;51.038;13.786;2022-12-08T05:33:49;6.63;;;5.10;;
15116;SDS011;7659;51.038;13.786;2022-12-08T05:36:15;8.70;;;5.40;;
15116;SDS011;7659;51.038;13.786;2022-12-08T05:38:41;8.90;;;5.85;;
15116;SDS011;7659;51.038;13.786;2022-12-08T05:41:07;11.52;;;6.00;;
15116;SDS011;7659;51.038;13.786;2022-12-08T05:43:33;9.25;;;6.60;;
15116;SDS011;7659;51.038;13.786;2022-12-08T05:45:59;8.10;;;6.45;;
15116;SDS011;7659;51.038;13.786;2022-12-08T05:48:24;9.30;;;6.47;;
15116;SDS011;7659;51.038;13.786;2022-12-08T05:50:50;9.75;;;6.20;;
15116;SDS011;7659;51.038;13.786;2022-12-08T05:53:16;9.82;;;6.43;;
15116;SDS011;7659;51.038;13.786;2022-12-08T05:55:41;13.35;;;6.80;;
15116;SDS011;7659;51.038;13.786;2022-12-08T05:58:08;10.23;;;7.22;;
15116;SDS011;7659;51.038;13.786;2022-12-08T06:00:36;10.05;;;7.40;;
15116;SDS011;7659;51.038;13.786;2022-12-08T06:03:01;10.75;;;7.18;;
15116;SDS011;7659;51.038;13.786;2022-12-08T06:05:27;11.75;;;7.70;;
15116;SDS011;7659;51.038;13.786;2022-12-08T06:07:52;13.95;;;9.57;;
15116;SDS011;7659;51.038;13.786;2022-12-08T06:10:17;17.15;;;11.77;;
15116;SDS011;7659;51.038;13.786;2022-12-08T06:12:43;16.92;;;11.68;;
15116;SDS011;7659;51.038;13.786;2022-12-08T06:15:08;17.05;;;11.02;;
15116;SDS011;7659;51.038;13.786;2022-12-08T06:17:34;13.07;;;8.95;;
15116;SDS011;7659;51.038;13.786;2022-12-08T06:19:59;13.07;;;8.93;;
15116;SDS011;7659;51.038;13.786;2022-12-08T06:22:25;10.65;;;6.60;;
15116;SDS011;7659;51.038;13.786;2022-12-08T06:24:51;9.05;;;6.40;;
15116;SDS011;7659;51.038;13.786;2022-12-08T06:27:16;7.65;;;6.35;;
15116;SDS011;7659;51.038;13.786;2022-12-08T06:29:41;7.85;;;5.95;;
15116;SDS011;7659;51.038;13.786;2022-12-08T06:32:07;9.40;;;6.47;;
15116;SDS011;7659;51.038;13.786;2022-12-08T06:34:32;10.57;;;7.93;;
15116;SDS011;7659;51.038;13.786;2022-12-08T06:36:58;9.07;;;6.63;;
15116;SDS011;7659;51.038;13.786;2022-12-08T06:39:23;7.80;;;5.68;;
15116;SDS011;7659;51.038;13.786;2022-12-08T06:41:49;9.55;;;6.82;;
15116;SDS011;7659;51.038;13.786;2022-12-08T06:44:33;7.97;;;6.10;;
15116;SDS011;7659;51.038;13.786;2022-12-08T06:46:58;7.00;;;6.30;;
15116;SDS011;7659;51.038;13.786;2022-12-08T06:49:24;9.05;;;6.60;;
15116;SDS011;7659;51.038;13.786;2022-12-08T06:51:49;8.35;;;6.53;;
15116;SDS011;7659;51.038;13.786;2022-12-08T06:54:15;8.52;;;6.60;;
15116;SDS011;7659;51.038;13.786;2022-12-08T06:56:40;8.00;;;6.45;;
15116;SDS011;7659;51.038;13.786;2022-12-08T06:59:05;9.43;;;6.25;;
15116;SDS011;7659;51.038;13.786;2022-12-08T07:01:31;9.45;;;5.90;;
15116;SDS011;7659;51.038;13.786;2022-12-08T07:03:56;8.10;;;6.30;;
15116;SDS011;7659;51.038;13.786;2022-12-08T07:06:22;8.00;;;6.45;;
15116;SDS011;7659;51.038;13.786;2022-12-08T07:08:48;10.07;;;6.57;;
15116;SDS011;7659;51.038;13.786;2022-12-08T07:11:14;9.05;;;6.25;;
15116;SDS011;7659;51.038;13.786;2022-12-08T07:13:39;8.60;;;6.90;;
15116;SDS011;7659;51.038;13.786;2022-12-08T07:16:05;6.63;;;5.97;;
15116;SDS011;7659;51.038;13.786;2022-12-08T07:18:31;8.23;;;6.70;;
15116;SDS011;7659;51.038;13.786;2022-12-08T07:21:01;8.73;;;6.30;;
15116;SDS011;7659;51.038;13.786;2022-12-08T07:23:26;7.35;;;6.32;;
15116;SDS011;7659;51.038;13.786;2022-12-08T07:25:52;8.15;;;6.22;;
15116;SDS011;7659;51.038;13.786;2022-12-08T07:28:17;7.85;;;5.82;;
15116;SDS011;7659;51.038;13.786;2022-12-08T07:30:43;8.32;;;6.68;;
15116;SDS011;7659;51.038;13.786;2022-12-08T07:33:08;8.60;;;6.15;;
15116;SDS011;7659;51.038;13.786;2022-12-08T07:35:33;7.00;;;5.85;;
15116;SDS011;7659;51.038;13.786;2022-12-08T07:37:59;6.78;;;6.03;;
15116;SDS011;7659;51.038;13.786;2022-12-08T07:40:24;7.95;;;6.47;;
15116;SDS011;7659;51.038;13.786;2022-12-08T07:42:50;7.60;;;6.40;;
15116;SDS011;7659;51.038;13.786;2022-12-08T07:45:15;9.70;;;6.57;;
15116;SDS011;7659;51.038;13.786;2022-12-08T07:47:41;7.65;;;6.60;;
15116;SDS011;7659;51.038;13.786;2022-12-08T07:50:06;6.80;;;6.00;;
15116;SDS011;7659;51.038;13.786;2022-12-08T07:52:32;9.52;;;6.63;;
15116;SDS011;7659;51.038;13.786;2022-12-08T07:54:58;9.90;;;7.18;;
15116;SDS011;7659;51.038;13.786;2022-12-08T07:57:23;9.63;;;6.80;;
15116;SDS011;7659;51.038;13.786;2022-12-08T07:59:49;11.00;;;6.72;;
15116;SDS011;7659;51.038;13.786;2022-12-08T08:02:18;7.63;;;6.53;;
15116;SDS011;7659;51.038;13.786;2022-12-08T08:04:44;9.43;;;7.32;;
15116;SDS011;7659;51.038;13.786;2022-12-08T08:07:09;8.60;;;7.45;;
15116;SDS011;7659;51.038;13.786;2022-12-08T08:09:35;8.88;;;6.95;;
15116;SDS011;7659;51.038;13.786;2022-12-08T08:12:00;10.88;;;7.18;;
15116;SDS011;7659;51.038;13.786;2022-12-08T08:14:26;9.10;;;6.78;;
15116;SDS011;7659;51.038;13.786;2022-12-08T08:16:51;11.48;;;7.28;;
15116;SDS011;7659;51.038;13.786;2022-12-08T08:19:18;10.05;;;7.57;;
15116;SDS011;7659;51.038;13.786;2022-12-08T08:21:44;9.30;;;8.05;;
15116;SDS011;7659;51.038;13.786;2022-12-08T08:24:09;9.15;;;7.35;;
15116;SDS011;7659;51.038;13.786;2022-12-08T08:26:35;9.95;;;7.78;;
15116;SDS011;7659;51.038;13.786;2022-12-08T08:29:01;11.70;;;8.13;;
15116;SDS011;7659;51.038;13.786;2022-12-08T08:31:26;11.25;;;8.50;;
15116;SDS011;7659;51.038;13.786;2022-12-08T08:33:52;15.88;;;7.85;;
15116;SDS011;7659;51.038;13.786;2022-12-08T08:36:18;11.23;;;8.02;;
15116;SDS011;7659;51.038;13.786;2022-12-08T08:38:43;12.95;;;7.95;;
15116;SDS011;7659;51.038;13.786;2022-12-08T08:41:09;10.32;;;8.05;;
15116;SDS011;7659;51.038;13.786;2022-12-08T08:43:35;11.63;;;7.85;;
15116;SDS011;7659;51.038;13.786;2022-12-08T08:46:01;9.85;;;7.75;;
15116;SDS011;7659;51.038;13.786;2022-12-08T08:48:27;9.95;;;7.95;;
15116;SDS011;7659;51.038;13.786;2022-12-08T08:50:53;10.95;;;7.03;;
15116;SDS011;7659;51.038;13.786;2022-12-08T08:53:18;10.90;;;7.90;;
15116;SDS011;7659;51.038;13.786;2022-12-08T08:55:44;10.38;;;8.25;;
15116;SDS011;7659;51.038;13.786;2022-12-08T08:58:09;9.85;;;7.78;;
15116;SDS011;7659;51.038;13.786;2022-12-08T09:00:35;13.38;;;8.73;;
15116;SDS011;7659;51.038;13.786;2022-12-08T09:03:00;13.35;;;10.55;;
15116;SDS011;7659;51.038;13.786;2022-12-08T09:05:26;13.15;;;9.88;;
15116;SDS011;7659;51.038;13.786;2022-12-08T09:07:51;11.45;;;8.65;;
15116;SDS011;7659;51.038;13.786;2022-12-08T09:10:16;10.98;;;8.50;;
15116;SDS011;7659;51.038;13.786;2022-12-08T09:12:42;11.82;;;9.27;;
15116;SDS011;7659;51.038;13.786;2022-12-08T09:15:07;11.88;;;9.35;;
15116;SDS011;7659;51.038;13.786;2022-12-08T09:17:33;11.05;;;8.52;;
15116;SDS011;7659;51.038;13.786;2022-12-08T09:19:58;12.38;;;8.43;;
15116;SDS011;7659;51.038;13.786;2022-12-08T09:22:25;15.32;;;8.90;;
15116;SDS011;7659;51.038;13.786;2022-12-08T09:24:51;9.38;;;7.88;;
15116;SDS011;7659;51.038;13.786;2022-12-08T09:27:16;10.88;;;8.13;;
15116;SDS011;7659;51.038;13.786;2022-12-08T09:29:41;11.13;;;8.93;;
15116;SDS011;7659;51.038;13.786;2022-12-08T09:32:07;8.93;;;8.02;;
15116;SDS011;7659;51.038;13.786;2022-12-08T09:34:32;11.27;;;8.98;;
15116;SDS011;7659;51.038;13.786;2022-12-08T09:36:58;12.05;;;9.15;;
15116;SDS011;7659;51.038;13.786;2022-12-08T09:39:23;10.90;;;7.78;;
15116;SDS011;7659;51.038;13.786;2022-12-08T09:41:49;10.38;;;7.20;;
15116;SDS011;7659;51.038;13.786;2022-12-08T09:46:55;8.25;;;6.88;;
15116;SDS011;7659;51.038;13.786;2022-12-08T09:49:22;12.60;;;7.13;;
15116;SDS011;7659;51.038;13.786;2022-12-08T09:51:52;8.05;;;6.25;;
15116;SDS011;7659;51.038;13.786;2022-12-08T09:54:19;8.38;;;6.28;;
15116;SDS011;7659;51.038;13.786;2022-12-08T09:56:45;8.10;;;5.85;;
15116;SDS011;7659;51.038;13.786;2022-12-08T09:59:30;8.65;;;6.18;;
15116;SDS011;7659;51.038;13.786;2022-12-08T10:01:56;5.95;;;5.25;;
15116;SDS011;7659;51.038;13.786;2022-12-08T10:04:23;7.75;;;6.45;;
15116;SDS011;7659;51.038;13.786;2022-12-08T10:07:02;7.25;;;6.47;;
15116;SDS011;7659;51.038;13.786;2022-12-08T10:11:59;8.55;;;6.00;;
15116;SDS011;7659;51.038;13.786;2022-12-08T10:14:30;10.18;;;7.05;;
15116;SDS011;7659;51.038;13.786;2022-12-08T10:17:09;7.25;;;5.68;;
15116;SDS011;7659;51.038;13.786;2022-12-08T10:19:35;6.90;;;5.60;;
15116;SDS011;7659;51.038;13.786;2022-12-08T10:22:04;9.07;;;5.60;;
15116;SDS011;7659;51.038;13.786;2022-12-08T10:24:39;9.60;;;5.33;;
15116;SDS011;7659;51.038;13.786;2022-12-08T10:27:08;7.80;;;5.47;;
15116;SDS011;7659;51.038;13.786;2022-12-08T10:29:35;7.55;;;5.18;;
15116;SDS011;7659;51.038;13.786;2022-12-08T10:32:15;7.45;;;4.72;;
15116;SDS011;7659;51.038;13.786;2022-12-08T10:35:01;9.27;;;4.68;;
15116;SDS011;7659;51.038;13.786;2022-12-08T10:37:27;7.45;;;5.28;;
15116;SDS011;7659;51.038;13.786;2022-12-08T10:40:00;5.88;;;4.82;;
15116;SDS011;7659;51.038;13.786;2022-12-08T10:42:27;5.82;;;5.00;;
15116;SDS011;7659;51.038;13.786;2022-12-08T10:47:23;6.10;;;5.35;;
15116;SDS011;7659;51.038;13.786;2022-12-08T10:50:11;7.07;;;5.63;;
15116;SDS011;7659;51.038;13.786;2022-12-08T10:52:40;6.13;;;5.43;;
15116;SDS011;7659;51.038;13.786;2022-12-08T10:55:12;8.15;;;6.03;;
15116;SDS011;7659;51.038;13.786;2022-12-08T10:57:38;10.10;;;5.47;;
15116;SDS011;7659;51.038;13.786;2022-12-08T11:00:03;6.80;;;5.70;;
15116;SDS011;7659;51.038;13.786;2022-12-08T11:02:29;8.15;;;6.00;;
15116;SDS011;7659;51.038;13.786;2022-12-08T11:04:57;7.03;;;5.50;;
15116;SDS011;7659;51.038;13.786;2022-12-08T11:07:24;5.85;;;5.20;;
15116;SDS011;7659;51.038;13.786;2022-12-08T11:09:52;6.22;;;5.03;;
15116;SDS011;7659;51.038;13.786;2022-12-08T11:12:19;7.00;;;5.38;;
15116;SDS011;7659;51.038;13.786;2022-12-08T11:14:49;6.18;;;5.25;;
15116;SDS011;7659;51.038;13.786;2022-12-08T11:22:21;6.93;;;5.10;;
15116;SDS011;7659;51.038;13.786;2022-12-08T11:24:55;5.55;;;4.20;;
15116;SDS011;7659;51.038;13.786;2022-12-08T11:27:21;7.88;;;4.55;;
15116;SDS011;7659;51.038;13.786;2022-12-08T11:29:46;6.05;;;5.20;;
15116;SDS011;7659;51.038;13.786;2022-12-08T11:32:12;4.78;;;3.97;;
15116;SDS011;7659;51.038;13.786;2022-12-08T11:37:04;4.68;;;3.47;;
15116;SDS011;7659;51.038;13.786;2022-12-08T11:39:31;5.53;;;4.13;;
15116;SDS011;7659;51.038;13.786;2022-12-08T11:41:58;8.60;;;3.53;;
15116;SDS011;7659;51.038;13.786;2022-12-08T11:47:30;4.07;;;3.15;;
15116;SDS011;7659;51.038;13.786;2022-12-08T11:50:02;4.32;;;3.10;;
15116;SDS011;7659;51.038;13.786;2022-12-08T11:52:29;4.57;;;3.10;;
15116;SDS011;7659;51.038;13.786;2022-12-08T11:55:02;5.43;;;3.45;;
15116;SDS011;7659;51.038;13.786;2022-12-08T11:57:28;4.70;;;2.88;;
15116;SDS011;7659;51.038;13.786;2022-12-08T11:59:55;4.32;;;3.42;;
15116;SDS011;7659;51.038;13.786;2022-12-08T12:02:21;5.85;;;4.00;;
15116;SDS011;7659;51.038;13.786;2022-12-08T12:07:37;4.80;;;3.53;;
15116;SDS011;7659;51.038;13.786;2022-12-08T12:18:11;5.18;;;3.28;;
15116;SDS011;7659;51.038;13.786;2022-12-08T12:25:31;3.42;;;2.65;;
15116;SDS011;7659;51.038;13.786;2022-12-08T12:28:00;3.25;;;2.40;;
15116;SDS011;7659;51.038;13.786;2022-12-08T12:30:27;4.00;;;2.53;;
15116;SDS011;7659;51.038;13.786;2022-12-08T12:32:57;3.95;;;2.50;;
15116;SDS011;7659;51.038;13.786;2022-12-08T12:35:33;4.65;;;3.15;;
15116;SDS011;7659;51.038;13.786;2022-12-08T12:38:01;3.13;;;2.65;;
15116;SDS011;7659;51.038;13.786;2022-12-08T12:40:27;4.05;;;2.83;;
15116;SDS011;7659;51.038;13.786;2022-12-08T12:45:24;4.25;;;3.40;;
15116;SDS011;7659;51.038;13.786;2022-12-08T12:52:58;5.20;;;3.00;;
15116;SDS011;7659;51.038;13.786;2022-12-08T12:55:24;4.68;;;3.72;;
15116;SDS011;7659;51.038;13.786;2022-12-08T12:57:52;6.00;;;3.33;;
15116;SDS011;7659;51.038;13.786;2022-12-08T13:00:19;4.00;;;2.85;;
15116;SDS011;7659;51.038;13.786;2022-12-08T13:02:45;4.68;;;3.15;;
15116;SDS011;7659;51.038;13.786;2022-12-08T13:05:28;4.43;;;3.47;;
15116;SDS011;7659;51.038;13.786;2022-12-08T13:07:55;4.68;;;3.42;;
15116;SDS011;7659;51.038;13.786;2022-12-08T13:10:23;6.88;;;3.55;;
15116;SDS011;7659;51.038;13.786;2022-12-08T13:15:34;4.90;;;3.42;;
15116;SDS011;7659;51.038;13.786;2022-12-08T13:18:00;6.28;;;3.97;;
15116;SDS011;7659;51.038;13.786;2022-12-08T13:20:26;5.95;;;4.22;;
15116;SDS011;7659;51.038;13.786;2022-12-08T13:28:11;8.10;;;3.92;;
15116;SDS011;7659;51.038;13.786;2022-12-08T13:30:42;5.13;;;3.40;;
15116;SDS011;7659;51.038;13.786;2022-12-08T13:33:25;4.28;;;3.40;;
15116;SDS011;7659;51.038;13.786;2022-12-08T13:35:56;5.75;;;4.00;;
15116;SDS011;7659;51.038;13.786;2022-12-08T13:38:26;5.82;;;3.63;;
15116;SDS011;7659;51.038;13.786;2022-12-08T13:40:54;5.07;;;4.07;;
15116;SDS011;7659;51.038;13.786;2022-12-08T13:46:04;4.50;;;3.30;;
15116;SDS011;7659;51.038;13.786;2022-12-08T13:48:50;4.38;;;3.47;;
15116;SDS011;7659;51.038;13.786;2022-12-08T13:51:22;4.32;;;3.38;;
15116;SDS011;7659;51.038;13.786;2022-12-08T13:54:12;4.22;;;3.13;;
15116;SDS011;7659;51.038;13.786;2022-12-08T13:56:39;4.80;;;3.15;;
15116;SDS011;7659;51.038;13.786;2022-12-08T14:01:44;4.45;;;3.38;;
15116;SDS011;7659;51.038;13.786;2022-12-08T14:04:21;4.50;;;3.30;;
15116;SDS011;7659;51.038;13.786;2022-12-08T14:07:20;5.90;;;3.78;;
15116;SDS011;7659;51.038;13.786;2022-12-08T14:09:38;5.05;;;3.72;;
15116;SDS011;7659;51.038;13.786;2022-12-08T14:12:05;5.00;;;3.25;;
15116;SDS011;7659;51.038;13.786;2022-12-08T14:14:33;4.40;;;3.78;;
15116;SDS011;7659;51.038;13.786;2022-12-08T14:17:06;5.47;;;3.60;;
15116;SDS011;7659;51.038;13.786;2022-12-08T14:19:32;5.63;;;4.18;;
15116;SDS011;7659;51.038;13.786;2022-12-08T14:21:59;6.20;;;3.90;;
15116;SDS011;7659;51.038;13.786;2022-12-08T14:24:26;6.25;;;3.40;;
15116;SDS011;7659;51.038;13.786;2022-12-08T14:26:53;8.20;;;3.72;;
15116;SDS011;7659;51.038;13.786;2022-12-08T14:29:31;7.00;;;4.03;;
15116;SDS011;7659;51.038;13.786;2022-12-08T14:31:57;6.75;;;3.88;;
15116;SDS011;7659;51.038;13.786;2022-12-08T14:34:22;5.18;;;3.92;;
15116;SDS011;7659;51.038;13.786;2022-12-08T14:36:48;6.38;;;4.25;;
15116;SDS011;7659;51.038;13.786;2022-12-08T14:39:13;7.88;;;4.75;;
15116;SDS011;7659;51.038;13.786;2022-12-08T14:41:39;6.45;;;4.75;;
15116;SDS011;7659;51.038;13.786;2022-12-08T14:44:13;8.18;;;5.43;;
15116;SDS011;7659;51.038;13.786;2022-12-08T14:49:38;7.80;;;4.63;;
15116;SDS011;7659;51.038;13.786;2022-12-08T14:52:08;8.25;;;5.25;;
15116;SDS011;7659;51.038;13.786;2022-12-08T14:54:34;8.05;;;4.95;;
15116;SDS011;7659;51.038;13.786;2022-12-08T14:56:59;7.28;;;5.03;;
15116;SDS011;7659;51.038;13.786;2022-12-08T14:59:35;6.70;;;4.63;;
15116;SDS011;7659;51.038;13.786;2022-12-08T15:02:23;5.38;;;4.40;;
15116;SDS011;7659;51.038;13.786;2022-12-08T15:05:09;6.20;;;4.25;;
15116;SDS011;7659;51.038;13.786;2022-12-08T15:10:17;6.50;;;4.55;;
15116;SDS011;7659;51.038;13.786;2022-12-08T15:15:25;5.85;;;4.32;;
15116;SDS011;7659;51.038;13.786;2022-12-08T15:23:00;9.02;;;5.60;;
15116;SDS011;7659;51.038;13.786;2022-12-08T15:25:26;9.13;;;5.43;;
15116;SDS011;7659;51.038;13.786;2022-12-08T15:27:51;7.50;;;4.95;;
15116;SDS011;7659;51.038;13.786;2022-12-08T15:30:21;7.72;;;5.43;;
15116;SDS011;7659;51.038;13.786;2022-12-08T15:32:46;9.40;;;5.40;;
15116;SDS011;7659;51.038;13.786;2022-12-08T15:35:13;7.07;;;5.00;;
15116;SDS011;7659;51.038;13.786;2022-12-08T15:37:39;9.70;;;5.38;;
15116;SDS011;7659;51.038;13.786;2022-12-08T15:40:05;8.43;;;4.95;;
15116;SDS011;7659;51.038;13.786;2022-12-08T15:42:30;10.95;;;5.32;;
15116;SDS011;7659;51.038;13.786;2022-12-08T15:44:56;10.27;;;5.82;;
15116;SDS011;7659;51.038;13.786;2022-12-08T15:47:21;10.25;;;6.65;;
15116;SDS011;7659;51.038;13.786;2022-12-08T15:49:48;10.48;;;6.28;;
15116;SDS011;7659;51.038;13.786;2022-12-08T15:52:18;10.40;;;6.47;;
15116;SDS011;7659;51.038;13.786;2022-12-08T15:54:44;12.32;;;7.18;;
15116;SDS011;7659;51.038;13.786;2022-12-08T15:57:20;11.93;;;6.93;;
15116;SDS011;7659;51.038;13.786;2022-12-08T15:59:46;9.63;;;6.43;;
15116;SDS011;7659;51.038;13.786;2022-12-08T16:02:12;10.60;;;5.80;;
15116;SDS011;7659;51.038;13.786;2022-12-08T16:04:38;12.25;;;6.57;;
15116;SDS011;7659;51.038;13.786;2022-12-08T16:07:04;8.38;;;6.07;;
15116;SDS011;7659;51.038;13.786;2022-12-08T16:09:31;8.98;;;6.13;;
15116;SDS011;7659;51.038;13.786;2022-12-08T16:11:57;9.13;;;5.97;;
15116;SDS011;7659;51.038;13.786;2022-12-08T16:14:41;8.73;;;5.68;;
15116;SDS011;7659;51.038;13.786;2022-12-08T16:17:11;9.35;;;6.00;;
15116;SDS011;7659;51.038;13.786;2022-12-08T16:19:38;8.05;;;5.82;;
15116;SDS011;7659;51.038;13.786;2022-12-08T16:22:03;7.60;;;4.88;;
15116;SDS011;7659;51.038;13.786;2022-12-08T16:24:28;8.52;;;5.38;;
15116;SDS011;7659;51.038;13.786;2022-12-08T16:26:54;6.88;;;5.15;;
15116;SDS011;7659;51.038;13.786;2022-12-08T16:29:20;6.60;;;5.13;;
15116;SDS011;7659;51.038;13.786;2022-12-08T16:31:45;7.88;;;5.05;;